createdAt,value
2016-12-08T00:00:40.887Z,99.99
2016-12-08T00:01:40.849Z,99.99
2016-12-08T00:02:40.806Z,99.99
2016-12-08T00:03:40.760Z,99.99
2016-12-08T00:04:41.024Z,99.99
2016-12-08T00:05:40.674Z,99.99
2016-12-08T00:06:40.935Z,99.99
2016-12-08T00:07:40.896Z,99.99
2016-12-08T00:08:40.851Z,99.99
2016-12-08T00:09:40.816Z,99.99
2016-12-08T00:10:40.764Z,99.99
2016-12-08T00:11:40.725Z,99.99
2016-12-08T00:12:40.683Z,99.99
2016-12-08T00:13:40.638Z,99.99
2016-12-08T00:14:40.596Z,99.99
2016-12-08T00:15:40.553Z,99.99
2016-12-08T00:16:40.516Z,99.99
2016-12-08T00:17:40.466Z,99.99
2016-12-08T00:18:40.425Z,99.99
2016-12-08T00:19:40.381Z,99.99
2016-12-08T00:20:40.344Z,99.99
2016-12-08T00:21:40.298Z,99.99
2016-12-08T00:22:40.257Z,99.99
2016-12-08T00:23:40.215Z,99.99
2016-12-08T00:24:40.173Z,99.99
2016-12-08T00:25:39.828Z,99.99
2016-12-08T00:26:40.083Z,99.99
2016-12-08T00:27:40.046Z,99.99
2016-12-08T00:28:39.697Z,99.99
2016-12-08T00:29:39.959Z,99.99
2016-12-08T00:30:39.613Z,99.99
2016-12-08T00:31:39.570Z,99.99
2016-12-08T00:32:39.829Z,99.99
2016-12-08T00:33:39.786Z,99.99
2016-12-08T00:34:39.744Z,99.99
2016-12-08T00:35:39.703Z,99.99
2016-12-08T00:36:39.357Z,99.99
2016-12-08T00:37:39.616Z,99.99
2016-12-08T00:38:39.275Z,99.99
2016-12-08T00:39:39.530Z,99.99
2016-12-08T00:40:39.185Z,99.99
2016-12-08T00:41:39.143Z,99.99
2016-12-08T00:42:39.404Z,99.99
2016-12-08T00:43:39.363Z,99.99
2016-12-08T00:44:39.321Z,99.99
2016-12-08T00:45:39.274Z,99.99
2016-12-08T00:46:39.235Z,99.99
2016-12-08T00:47:39.189Z,99.99
2016-12-08T00:48:39.146Z,99.99
2016-12-08T00:49:39.105Z,99.99
2016-12-08T00:50:38.759Z,99.99
2016-12-08T00:51:39.018Z,99.99
2016-12-08T00:52:38.975Z,99.99
2016-12-08T00:53:38.931Z,99.99
2016-12-08T00:54:38.894Z,99.99
2016-12-08T00:55:38.845Z,99.99
2016-12-08T00:56:38.812Z,99.99
2016-12-08T00:57:38.761Z,99.99
2016-12-08T00:58:38.416Z,99.99
2016-12-08T00:59:38.673Z,99.99
2016-12-08T01:00:38.633Z,99.99
2016-12-08T01:01:38.595Z,99.99
2016-12-08T01:02:38.548Z,99.99
2016-12-08T01:03:38.512Z,99.99
2016-12-08T01:04:38.463Z,99.99
2016-12-08T01:05:38.427Z,99.99
2016-12-08T01:06:38.379Z,99.99
2016-12-08T01:07:38.033Z,99.99
2016-12-08T01:08:37.995Z,99.99
2016-12-08T01:09:38.251Z,99.99
2016-12-08T01:10:38.206Z,99.99
2016-12-08T01:11:37.867Z,99.99
2016-12-08T01:12:38.127Z,99.99
2016-12-08T01:13:38.081Z,99.99
2016-12-08T01:14:37.737Z,99.99
2016-12-08T01:15:37.993Z,99.99
2016-12-08T01:16:37.954Z,99.99
2016-12-08T01:17:37.911Z,99.99
2016-12-08T01:18:37.863Z,99.99
2016-12-08T01:19:37.824Z,99.99
2016-12-08T01:20:37.782Z,99.99
2016-12-08T01:21:37.740Z,99.99
2016-12-08T01:22:37.698Z,99.99
2016-12-08T01:23:37.655Z,99.99
2016-12-08T01:24:37.310Z,99.99
2016-12-08T01:25:37.270Z,99.99
2016-12-08T01:26:37.222Z,99.99
2016-12-08T01:27:37.484Z,99.99
2016-12-08T01:28:37.444Z,99.99
2016-12-08T01:29:37.095Z,99.99
2016-12-08T01:30:37.354Z,99.99
2016-12-08T01:31:37.314Z,99.99
2016-12-08T01:32:37.270Z,99.99
2016-12-08T01:33:37.228Z,99.99
2016-12-08T01:34:37.190Z,99.99
2016-12-08T01:35:37.142Z,99.99
2016-12-08T01:36:37.100Z,99.99
2016-12-08T01:37:37.059Z,99.99
2016-12-08T01:38:37.015Z,99.99
2016-12-08T01:39:36.971Z,99.99
2016-12-08T01:40:36.931Z,99.99
2016-12-08T01:41:36.591Z,99.99
2016-12-08T01:42:36.848Z,99.99
2016-12-08T01:43:36.800Z,99.99
2016-12-08T01:44:36.760Z,99.99
2016-12-08T01:45:36.719Z,99.99
2016-12-08T01:46:36.671Z,99.99
2016-12-08T01:47:36.634Z,99.99
2016-12-08T01:48:36.589Z,99.99
2016-12-08T01:49:36.545Z,99.99
2016-12-08T01:50:36.503Z,99.99
2016-12-08T01:51:36.458Z,99.99
2016-12-08T01:52:36.417Z,99.99
2016-12-08T01:53:36.376Z,99.99
2016-12-08T01:54:36.334Z,99.99
2016-12-08T01:55:36.293Z,99.99
2016-12-08T01:56:36.249Z,99.99
2016-12-08T01:57:36.232Z,99.99
2016-12-08T01:58:36.160Z,99.99
2016-12-08T01:59:35.816Z,99.99
2016-12-08T02:00:36.079Z,99.99
2016-12-08T02:01:35.734Z,99.99
2016-12-08T02:02:35.987Z,99.99
2016-12-08T02:03:35.950Z,99.99
2016-12-08T02:04:35.605Z,99.99
2016-12-08T02:05:35.858Z,99.99
2016-12-08T02:06:35.818Z,99.99
2016-12-08T02:07:35.775Z,99.99
2016-12-08T02:08:35.739Z,99.99
2016-12-08T02:09:35.387Z,99.99
2016-12-08T02:10:35.348Z,99.99
2016-12-08T02:11:35.606Z,99.99
2016-12-08T02:12:35.562Z,99.99
2016-12-08T02:13:35.519Z,99.99
2016-12-08T02:14:35.477Z,99.99
2016-12-08T02:15:35.433Z,99.99
2016-12-08T02:16:35.393Z,99.99
2016-12-08T02:17:35.350Z,99.99
2016-12-08T02:18:35.303Z,99.99
2016-12-08T02:19:35.264Z,99.99
2016-12-08T02:20:35.219Z,99.99
2016-12-08T02:21:35.174Z,99.99
2016-12-08T02:22:35.134Z,99.99
2016-12-08T02:23:35.092Z,99.99
2016-12-08T02:24:35.049Z,99.99
2016-12-08T02:25:35.012Z,99.99
2016-12-08T02:26:34.962Z,99.99
2016-12-08T02:27:34.617Z,99.99
2016-12-08T02:28:34.581Z,99.99
2016-12-08T02:29:34.833Z,99.99
2016-12-08T02:30:34.788Z,99.99
2016-12-08T02:31:34.750Z,99.99
2016-12-08T02:32:34.707Z,99.99
2016-12-08T02:33:34.666Z,99.99
2016-12-08T02:34:34.623Z,99.99
2016-12-08T02:35:34.587Z,99.99
2016-12-08T02:36:34.537Z,99.99
2016-12-08T02:37:34.492Z,99.99
2016-12-08T02:38:34.147Z,99.99
2016-12-08T02:39:34.407Z,99.99
2016-12-08T02:40:34.366Z,99.99
2016-12-08T02:41:34.322Z,99.99
2016-12-08T02:42:33.976Z,99.99
2016-12-08T02:43:34.239Z,99.99
2016-12-08T02:44:34.195Z,99.99
2016-12-08T02:45:34.149Z,99.99
2016-12-08T02:46:34.108Z,99.99
2016-12-08T02:47:34.066Z,99.99
2016-12-08T02:48:34.023Z,99.99
2016-12-08T02:49:33.981Z,99.99
2016-12-08T02:50:33.938Z,99.99
2016-12-08T02:51:33.893Z,99.99
2016-12-08T02:52:33.851Z,99.99
2016-12-08T02:53:33.813Z,99.99
2016-12-08T02:54:33.766Z,99.99
2016-12-08T02:55:33.726Z,99.99
2016-12-08T02:56:33.680Z,99.99
2016-12-08T02:57:33.638Z,99.99
2016-12-08T02:58:33.597Z,99.99
2016-12-08T02:59:33.254Z,99.99
2016-12-08T03:00:33.510Z,99.99
2016-12-08T03:01:33.470Z,99.99
2016-12-08T03:02:33.125Z,99.99
2016-12-08T03:03:33.383Z,99.99
2016-12-08T03:04:33.340Z,99.99
2016-12-08T03:05:33.297Z,99.99
2016-12-08T03:06:33.255Z,99.99
2016-12-08T03:07:33.218Z,99.99
2016-12-08T03:08:32.869Z,99.99
2016-12-08T03:09:32.827Z,99.99
2016-12-08T03:10:32.781Z,99.99
2016-12-08T03:11:33.045Z,99.99
2016-12-08T03:12:33.001Z,99.99
2016-12-08T03:13:32.960Z,99.99
2016-12-08T03:14:32.914Z,99.99
2016-12-08T03:15:32.570Z,99.99
2016-12-08T03:16:32.831Z,99.99
2016-12-08T03:17:32.789Z,99.99
2016-12-08T03:18:32.771Z,99.99
2016-12-08T03:19:32.700Z,99.99
2016-12-08T03:20:32.657Z,99.99
2016-12-08T03:21:32.615Z,99.99
2016-12-08T03:22:32.270Z,99.99
2016-12-08T03:23:32.538Z,99.99
2016-12-08T03:24:32.490Z,99.99
2016-12-08T03:25:32.447Z,99.99
2016-12-08T03:26:32.405Z,99.99
2016-12-08T03:27:32.057Z,99.99
2016-12-08T03:28:32.317Z,99.99
2016-12-08T03:29:32.275Z,99.99
2016-12-08T03:30:31.929Z,99.99
2016-12-08T03:31:32.191Z,99.99
2016-12-08T03:32:31.845Z,99.99
2016-12-08T03:33:32.107Z,99.99
2016-12-08T03:34:32.061Z,99.99
2016-12-08T03:35:32.020Z,99.99
2016-12-08T03:36:31.677Z,99.99
2016-12-08T03:37:31.936Z,99.99
2016-12-08T03:38:31.588Z,99.99
2016-12-08T03:39:31.849Z,99.99
2016-12-08T03:40:31.808Z,99.99
2016-12-08T03:41:31.762Z,99.99
2016-12-08T03:42:31.418Z,99.99
2016-12-08T03:43:31.375Z,99.99
2016-12-08T03:44:31.636Z,99.99
2016-12-08T03:45:31.592Z,99.99
2016-12-08T03:46:31.582Z,99.99
2016-12-08T03:47:31.503Z,99.99
2016-12-08T03:48:31.159Z,99.99
2016-12-08T03:49:31.421Z,99.99
2016-12-08T03:50:31.377Z,99.99
2016-12-08T03:51:31.335Z,99.99
2016-12-08T03:52:31.291Z,99.99
2016-12-08T03:53:31.248Z,99.99
2016-12-08T03:54:31.205Z,99.99
2016-12-08T03:55:31.163Z,99.99
2016-12-08T03:56:31.122Z,99.99
2016-12-08T03:57:31.084Z,99.99
2016-12-08T03:58:31.035Z,99.99
2016-12-08T03:59:30.991Z,99.99
2016-12-08T04:00:30.650Z,99.99
2016-12-08T04:01:30.907Z,99.99
2016-12-08T04:02:30.864Z,99.99
2016-12-08T04:03:30.823Z,99.99
2016-12-08T04:04:30.782Z,99.99
2016-12-08T04:05:30.432Z,99.99
2016-12-08T04:06:30.694Z,99.99
2016-12-08T04:07:30.652Z,99.99
2016-12-08T04:08:30.610Z,99.99
2016-12-08T04:09:30.564Z,99.99
2016-12-08T04:10:30.523Z,99.99
2016-12-08T04:11:30.481Z,99.99
2016-12-08T04:12:30.137Z,99.99
2016-12-08T04:13:30.095Z,99.99
2016-12-08T04:14:30.052Z,99.99
2016-12-08T04:15:30.312Z,99.99
2016-12-08T04:16:30.272Z,99.99
2016-12-08T04:17:30.225Z,99.99
2016-12-08T04:18:29.881Z,99.99
2016-12-08T04:19:30.142Z,99.99
2016-12-08T04:20:29.795Z,99.99
2016-12-08T04:21:30.050Z,99.99
2016-12-08T04:22:30.011Z,99.99
2016-12-08T04:23:29.973Z,99.99
2016-12-08T04:24:29.925Z,99.99
2016-12-08T04:25:29.881Z,99.99
2016-12-08T04:26:29.545Z,99.99
2016-12-08T04:27:29.797Z,99.99
2016-12-08T04:28:29.758Z,99.99
2016-12-08T04:29:29.717Z,99.99
2016-12-08T04:30:29.671Z,99.99
2016-12-08T04:31:29.327Z,99.99
2016-12-08T04:32:29.285Z,99.99
2016-12-08T04:33:29.545Z,99.99
2016-12-08T04:34:29.500Z,99.99
2016-12-08T04:35:29.458Z,99.99
2016-12-08T04:36:29.416Z,99.99
2016-12-08T04:37:29.370Z,99.99
2016-12-08T04:38:29.328Z,99.99
2016-12-08T04:39:29.287Z,99.99
2016-12-08T04:40:28.941Z,99.99
2016-12-08T04:41:29.201Z,99.99
2016-12-08T04:42:28.858Z,99.99
2016-12-08T04:43:29.122Z,99.99
2016-12-08T04:44:29.072Z,99.99
2016-12-08T04:45:29.030Z,99.99
2016-12-08T04:46:28.687Z,99.99
2016-12-08T04:47:28.948Z,99.99
2016-12-08T04:48:28.903Z,99.99
2016-12-08T04:49:28.866Z,99.99
2016-12-08T04:50:28.817Z,99.99
2016-12-08T04:51:28.774Z,99.99
2016-12-08T04:52:28.433Z,99.99
2016-12-08T04:53:28.690Z,99.99
2016-12-08T04:54:28.649Z,99.99
2016-12-08T04:55:28.604Z,99.99
2016-12-08T04:56:28.566Z,99.99
2016-12-08T04:57:28.517Z,99.99
2016-12-08T04:58:28.486Z,99.99
2016-12-08T04:59:28.447Z,99.99
2016-12-08T05:00:28.393Z,99.99
2016-12-08T05:01:28.348Z,99.99
2016-12-08T05:02:28.305Z,99.99
2016-12-08T05:03:28.266Z,99.99
2016-12-08T05:04:28.228Z,99.99
2016-12-08T05:05:28.179Z,99.99
2016-12-08T05:06:28.138Z,99.99
2016-12-08T05:07:28.095Z,99.99
2016-12-08T05:08:27.753Z,99.99
2016-12-08T05:09:28.008Z,99.99
2016-12-08T05:10:27.666Z,99.99
2016-12-08T05:11:27.927Z,99.99
2016-12-08T05:12:27.884Z,99.99
2016-12-08T05:13:27.838Z,99.99
2016-12-08T05:14:27.794Z,99.99
2016-12-08T05:15:27.449Z,99.99
2016-12-08T05:16:27.409Z,99.99
2016-12-08T05:17:27.668Z,99.99
2016-12-08T05:18:27.622Z,99.99
2016-12-08T05:19:27.582Z,99.99
2016-12-08T05:20:27.539Z,99.99
2016-12-08T05:21:27.498Z,99.99
2016-12-08T05:22:27.455Z,99.99
2016-12-08T05:23:27.412Z,99.99
2016-12-08T05:24:27.370Z,99.99
2016-12-08T05:25:27.338Z,99.99
2016-12-08T05:26:27.283Z,99.99
2016-12-08T05:27:27.242Z,99.99
2016-12-08T05:28:26.901Z,99.99
2016-12-08T05:29:27.160Z,99.99
2016-12-08T05:30:27.114Z,99.99
2016-12-08T05:31:26.769Z,99.99
2016-12-08T05:32:26.732Z,99.99
2016-12-08T05:33:27.018Z,99.99
2016-12-08T05:34:26.943Z,99.99
2016-12-08T05:35:26.903Z,99.99
2016-12-08T05:36:26.860Z,99.99
2016-12-08T05:37:26.815Z,99.99
2016-12-08T05:38:26.771Z,99.99
2016-12-08T05:39:26.431Z,99.99
2016-12-08T05:40:26.686Z,99.99
2016-12-08T05:41:26.645Z,99.99
2016-12-08T05:42:26.300Z,99.99
2016-12-08T05:43:26.559Z,99.99
2016-12-08T05:44:26.516Z,99.99
2016-12-08T05:45:26.477Z,99.99
2016-12-08T05:46:26.434Z,99.99
2016-12-08T05:47:26.386Z,99.99
2016-12-08T05:48:26.348Z,99.99
2016-12-08T05:49:26.305Z,99.99
2016-12-08T05:50:26.262Z,99.99
2016-12-08T05:51:25.914Z,99.99
2016-12-08T05:52:26.176Z,99.99
2016-12-08T05:53:26.135Z,99.99
2016-12-08T05:54:26.090Z,99.99
2016-12-08T05:55:26.047Z,99.99
2016-12-08T05:56:26.003Z,99.99
2016-12-08T05:57:25.959Z,99.99
2016-12-08T05:58:25.615Z,99.99
2016-12-08T05:59:25.875Z,99.99
2016-12-08T06:00:25.835Z,99.99
2016-12-08T06:01:25.789Z,99.99
2016-12-08T06:02:25.443Z,99.99
2016-12-08T06:03:25.705Z,99.99
2016-12-08T06:04:25.666Z,99.99
2016-12-08T06:05:25.622Z,99.99
2016-12-08T06:06:25.274Z,99.99
2016-12-08T06:07:25.535Z,99.99
2016-12-08T06:08:25.495Z,99.99
2016-12-08T06:09:25.447Z,99.99
2016-12-08T06:10:25.421Z,99.99
2016-12-08T06:11:25.361Z,99.99
2016-12-08T06:12:25.322Z,99.99
2016-12-08T06:13:25.284Z,99.99
2016-12-08T06:14:25.240Z,99.99
2016-12-08T06:15:25.210Z,99.99
2016-12-08T06:16:25.153Z,99.99
2016-12-08T06:17:25.106Z,99.99
2016-12-08T06:18:25.079Z,99.99
2016-12-08T06:19:25.025Z,99.99
2016-12-08T06:20:24.978Z,99.99
2016-12-08T06:21:24.936Z,99.99
2016-12-08T06:22:24.593Z,99.99
2016-12-08T06:23:24.548Z,99.99
2016-12-08T06:24:24.809Z,99.99
2016-12-08T06:25:24.464Z,99.99
2016-12-08T06:26:24.724Z,99.99
2016-12-08T06:27:24.681Z,99.99
2016-12-08T06:28:24.637Z,99.99
2016-12-08T06:29:24.595Z,99.99
2016-12-08T06:30:24.555Z,99.99
2016-12-08T06:31:24.511Z,99.99
2016-12-08T06:32:24.475Z,99.99
2016-12-08T06:33:24.423Z,99.99
2016-12-08T06:34:24.382Z,99.89
2016-12-08T06:35:24.037Z,99.71
2016-12-08T06:36:24.296Z,99.89
2016-12-08T06:37:24.255Z,99.99
2016-12-08T06:38:24.210Z,99.89
2016-12-08T06:39:24.174Z,99.89
2016-12-08T06:40:23.826Z,99.89
2016-12-08T06:41:24.089Z,99.71
2016-12-08T06:42:24.042Z,99.89
2016-12-08T06:43:23.999Z,99.99
2016-12-08T06:44:23.957Z,99.99
2016-12-08T06:45:23.610Z,99.99
2016-12-08T06:46:23.871Z,99.99
2016-12-08T06:47:23.526Z,99.89
2016-12-08T06:48:23.485Z,99.89
2016-12-08T06:49:23.743Z,99.71
2016-12-08T06:50:23.402Z,99.99
2016-12-08T06:51:23.657Z,99.99
2016-12-08T06:52:23.615Z,99.99
2016-12-08T06:53:23.571Z,99.89
2016-12-08T06:54:23.525Z,99.71
2016-12-08T06:55:23.488Z,99.99
2016-12-08T06:56:23.444Z,99.99
2016-12-08T06:57:23.097Z,99.52
2016-12-08T06:58:23.357Z,99.89
2016-12-08T06:59:23.318Z,99.89
2016-12-08T07:00:23.271Z,99.89
2016-12-08T07:01:23.230Z,99.89
2016-12-08T07:02:23.183Z,99.89
2016-12-08T07:03:23.144Z,99.99
2016-12-08T07:04:23.102Z,99.89
2016-12-08T07:05:23.057Z,99.71
2016-12-08T07:06:23.018Z,99.71
2016-12-08T07:07:22.973Z,99.71
2016-12-08T07:08:22.940Z,99.99
2016-12-08T07:09:22.887Z,99.99
2016-12-08T07:10:22.541Z,99.99
2016-12-08T07:11:22.499Z,99.89
2016-12-08T07:12:22.758Z,99.89
2016-12-08T07:13:22.414Z,99.71
2016-12-08T07:14:22.675Z,99.99
2016-12-08T07:15:22.628Z,99.8
2016-12-08T07:16:22.594Z,99.71
2016-12-08T07:17:22.545Z,99.71
2016-12-08T07:18:22.502Z,99.23
2016-12-08T07:19:22.457Z,99.52
2016-12-08T07:20:22.416Z,99.33
2016-12-08T07:21:22.372Z,99.52
2016-12-08T07:22:22.331Z,99.14
2016-12-08T07:23:21.985Z,99.33
2016-12-08T07:24:22.247Z,99.61
2016-12-08T07:25:22.212Z,99.52
2016-12-08T07:26:22.159Z,99.14
2016-12-08T07:27:22.148Z,98.85
2016-12-08T07:28:22.074Z,98.85
2016-12-08T07:29:22.033Z,99.23
2016-12-08T07:30:21.988Z,99.23
2016-12-08T07:31:21.946Z,99.14
2016-12-08T07:32:21.905Z,99.33
2016-12-08T07:33:21.858Z,99.14
2016-12-08T07:34:21.514Z,98.95
2016-12-08T07:35:21.776Z,98.85
2016-12-08T07:36:21.734Z,98.76
2016-12-08T07:37:21.692Z,98.76
2016-12-08T07:38:21.345Z,98.57
2016-12-08T07:39:21.604Z,98.57
2016-12-08T07:40:21.559Z,98.66
2016-12-08T07:41:21.520Z,98.38
2016-12-08T07:42:21.476Z,98.38
2016-12-08T07:43:21.131Z,99.14
2016-12-08T07:44:21.091Z,98.95
2016-12-08T07:45:21.349Z,98.47
2016-12-08T07:46:21.004Z,99.14
2016-12-08T07:47:20.965Z,98.38
2016-12-08T07:48:20.919Z,98.57
2016-12-08T07:49:21.178Z,98.38
2016-12-08T07:50:20.833Z,98.66
2016-12-08T07:51:21.093Z,98.1
2016-12-08T07:52:21.049Z,98.47
2016-12-08T07:53:21.011Z,98.57
2016-12-08T07:54:20.972Z,97.81
2016-12-08T07:55:20.936Z,98.28
2016-12-08T07:56:20.881Z,98.47
2016-12-08T07:57:20.837Z,98.28
2016-12-08T07:58:20.799Z,98.47
2016-12-08T07:59:20.456Z,97.81
2016-12-08T08:00:20.412Z,97.91
2016-12-08T08:01:20.374Z,97.81
2016-12-08T08:02:20.627Z,97.63
2016-12-08T08:03:20.589Z,97.63
2016-12-08T08:04:20.544Z,97.15
2016-12-08T08:05:20.505Z,97.25
2016-12-08T08:06:20.456Z,97.15
2016-12-08T08:07:20.418Z,96.96
2016-12-08T08:08:20.371Z,96.96
2016-12-08T08:09:20.030Z,97.25
2016-12-08T08:10:19.987Z,97.34
2016-12-08T08:11:20.244Z,96.68
2016-12-08T08:12:20.201Z,97.15
2016-12-08T08:13:20.166Z,97.15
2016-12-08T08:14:20.122Z,97.25
2016-12-08T08:15:19.770Z,96.64
2016-12-08T08:16:19.733Z,96.78
2016-12-08T08:17:19.987Z,96.45
2016-12-08T08:18:19.949Z,96.59
2016-12-08T08:19:19.601Z,96.64
2016-12-08T08:20:19.865Z,96.64
2016-12-08T08:21:19.827Z,96.16
2016-12-08T08:22:19.785Z,96.16
2016-12-08T08:23:19.741Z,96.35
2016-12-08T08:24:19.696Z,96.16
2016-12-08T08:25:19.346Z,96.26
2016-12-08T08:26:19.305Z,96.35
2016-12-08T08:27:19.561Z,95.78
2016-12-08T08:28:19.522Z,96.16
2016-12-08T08:29:19.475Z,95.69
2016-12-08T08:30:19.132Z,95.31
2016-12-08T08:31:19.403Z,95.59
2016-12-08T08:32:19.049Z,95.59
2016-12-08T08:33:19.010Z,94.74
2016-12-08T08:34:18.966Z,95.03
2016-12-08T08:35:19.223Z,95.12
2016-12-08T08:36:19.182Z,94.93
2016-12-08T08:37:19.143Z,95.03
2016-12-08T08:38:19.096Z,94.84
2016-12-08T08:39:19.054Z,94.84
2016-12-08T08:40:19.016Z,94.56
2016-12-08T08:41:18.969Z,94.56
2016-12-08T08:42:18.934Z,94.56
2016-12-08T08:43:18.886Z,94.74
2016-12-08T08:44:18.540Z,94.37
2016-12-08T08:45:18.803Z,94.37
2016-12-08T08:46:18.759Z,94.18
2016-12-08T08:47:18.714Z,94.27
2016-12-08T08:48:18.672Z,94.37
2016-12-08T08:49:18.636Z,93.89
2016-12-08T08:50:18.590Z,94.46
2016-12-08T08:51:18.546Z,94.27
2016-12-08T08:52:18.503Z,94.27
2016-12-08T08:53:18.460Z,93.99
2016-12-08T08:54:18.118Z,93.7
2016-12-08T08:55:18.382Z,93.8
2016-12-08T08:56:18.335Z,93.32
2016-12-08T08:57:18.293Z,93.61
2016-12-08T08:58:18.248Z,93.42
2016-12-08T08:59:18.211Z,93.13
2016-12-08T09:00:18.165Z,92.94
2016-12-08T09:01:18.129Z,93.32
2016-12-08T09:02:17.779Z,92.66
2016-12-08T09:03:18.041Z,92.85
2016-12-08T09:04:17.997Z,92.85
2016-12-08T09:05:17.961Z,93.13
2016-12-08T09:06:17.922Z,93.04
2016-12-08T09:07:17.570Z,93.04
2016-12-08T09:08:17.527Z,93.42
2016-12-08T09:09:17.788Z,93.23
2016-12-08T09:10:17.441Z,93.23
2016-12-08T09:11:17.700Z,93.23
2016-12-08T09:12:17.658Z,93.23
2016-12-08T09:13:17.317Z,93.32
2016-12-08T09:14:17.276Z,93.32
2016-12-08T09:15:17.534Z,92.47
2016-12-08T09:16:17.490Z,91.91
2016-12-08T09:17:17.150Z,92.19
2016-12-08T09:18:17.411Z,92.19
2016-12-08T09:19:17.364Z,92.38
2016-12-08T09:20:17.323Z,92.85
2016-12-08T09:21:16.977Z,93.13
2016-12-08T09:22:17.241Z,93.04
2016-12-08T09:23:16.896Z,92.85
2016-12-08T09:24:16.854Z,93.23
2016-12-08T09:25:16.811Z,93.42
2016-12-08T09:26:17.070Z,92.76
2016-12-08T09:27:17.025Z,92.66
2016-12-08T09:28:16.684Z,92.66
2016-12-08T09:29:16.946Z,92.66
2016-12-08T09:30:16.602Z,92.33
2016-12-08T09:31:16.860Z,92.47
2016-12-08T09:32:16.518Z,91.48
2016-12-08T09:33:16.777Z,91.1
2016-12-08T09:34:16.736Z,91.15
2016-12-08T09:35:16.696Z,91.53
2016-12-08T09:36:16.653Z,91.24
2016-12-08T09:37:16.331Z,91.53
2016-12-08T09:38:16.566Z,91.53
2016-12-08T09:39:16.525Z,91.34
2016-12-08T09:40:16.483Z,91.34
2016-12-08T09:41:16.442Z,91.34
2016-12-08T09:42:16.403Z,91.43
2016-12-08T09:43:16.054Z,91.15
2016-12-08T09:44:16.314Z,91.05
2016-12-08T09:45:15.971Z,90.96
2016-12-08T09:46:15.930Z,91.05
2016-12-08T09:47:16.187Z,91.15
2016-12-08T09:48:16.152Z,91.24
2016-12-08T09:49:16.104Z,91.24
2016-12-08T09:50:16.061Z,91.24
2016-12-08T09:51:16.021Z,91.1
2016-12-08T09:52:15.977Z,91.2
2016-12-08T09:53:15.936Z,91.1
2016-12-08T09:54:15.893Z,90.63
2016-12-08T09:55:15.855Z,90.16
2016-12-08T09:56:15.809Z,90.06
2016-12-08T09:57:15.777Z,89.5
2016-12-08T09:58:15.424Z,89.5
2016-12-08T09:59:15.682Z,89.02
2016-12-08T10:00:15.343Z,88.45
2016-12-08T10:01:15.603Z,88.74
2016-12-08T10:02:15.559Z,88.26
2016-12-08T10:03:15.514Z,88.17
2016-12-08T10:04:15.473Z,88.17
2016-12-08T10:05:15.130Z,87.6
2016-12-08T10:06:15.391Z,87.7
2016-12-08T10:07:15.350Z,87.79
2016-12-08T10:08:15.312Z,87.88
2016-12-08T10:09:15.265Z,87.7
2016-12-08T10:10:14.922Z,87.6
2016-12-08T10:11:15.185Z,86.94
2016-12-08T10:12:14.840Z,86.7
2016-12-08T10:13:15.097Z,86.47
2016-12-08T10:14:14.757Z,86.56
2016-12-08T10:15:15.017Z,86.66
2016-12-08T10:16:14.673Z,86.47
2016-12-08T10:17:14.936Z,86.47
2016-12-08T10:18:14.894Z,86.94
2016-12-08T10:19:14.849Z,85.94
2016-12-08T10:20:14.809Z,85.99
2016-12-08T10:21:14.472Z,86.28
2016-12-08T10:22:14.727Z,86.75
2016-12-08T10:23:14.688Z,85.99
2016-12-08T10:24:14.648Z,85.9
2016-12-08T10:25:14.301Z,85.9
2016-12-08T10:26:14.561Z,86.09
2016-12-08T10:27:14.519Z,86.75
2016-12-08T10:28:14.476Z,86.75
2016-12-08T10:29:14.135Z,87.04
2016-12-08T10:30:14.395Z,86.75
2016-12-08T10:31:14.357Z,86.89
2016-12-08T10:32:14.311Z,86.79
2016-12-08T10:33:13.970Z,86.41
2016-12-08T10:34:14.229Z,86.7
2016-12-08T10:35:14.190Z,85.94
2016-12-08T10:36:14.146Z,85.85
2016-12-08T10:37:14.105Z,86.22
2016-12-08T10:38:14.068Z,85.94
2016-12-08T10:39:14.020Z,85.9
2016-12-08T10:40:13.679Z,86.56
2016-12-08T10:41:13.945Z,86.85
2016-12-08T10:42:13.899Z,87.32
2016-12-08T10:43:13.857Z,87.36
2016-12-08T10:44:13.815Z,87.27
2016-12-08T10:45:13.777Z,86.98
2016-12-08T10:46:13.734Z,87.08
2016-12-08T10:47:13.393Z,86.51
2016-12-08T10:48:13.352Z,86.04
2016-12-08T10:49:13.610Z,85.94
2016-12-08T10:50:13.569Z,85.47
2016-12-08T10:51:13.529Z,84.42
2016-12-08T10:52:13.187Z,84.9
2016-12-08T10:53:13.446Z,85.09
2016-12-08T10:54:13.406Z,85.38
2016-12-08T10:55:13.364Z,85.28
2016-12-08T10:56:13.322Z,84.9
2016-12-08T10:57:13.283Z,84.81
2016-12-08T10:58:12.943Z,85.28
2016-12-08T10:59:13.201Z,84.52
2016-12-08T11:00:13.158Z,84.81
2016-12-08T11:01:13.124Z,84.42
2016-12-08T11:02:13.074Z,84.66
2016-12-08T11:03:12.735Z,84.94
2016-12-08T11:04:12.693Z,83.62
2016-12-08T11:05:12.956Z,84
2016-12-08T11:06:12.910Z,83.05
2016-12-08T11:07:12.872Z,83.62
2016-12-08T11:08:12.837Z,83.62
2016-12-08T11:09:12.793Z,83.24
2016-12-08T11:10:12.749Z,82.86
2016-12-08T11:11:12.406Z,82.48
2016-12-08T11:12:12.387Z,82.29
2016-12-08T11:13:12.328Z,82.29
2016-12-08T11:14:12.590Z,81.92
2016-12-08T11:15:12.547Z,82.1
2016-12-08T11:16:12.504Z,81.92
2016-12-08T11:17:12.466Z,82.01
2016-12-08T11:18:12.123Z,82.1
2016-12-08T11:19:12.387Z,81.82
2016-12-08T11:20:12.345Z,81.44
2016-12-08T11:21:12.303Z,81.72
2016-12-08T11:22:12.266Z,81.1
2016-12-08T11:23:12.223Z,80.82
2016-12-08T11:24:12.183Z,81.25
2016-12-08T11:25:12.145Z,81.63
2016-12-08T11:26:12.102Z,81.67
2016-12-08T11:27:12.065Z,81.01
2016-12-08T11:28:11.722Z,81.1
2016-12-08T11:29:11.979Z,81.2
2016-12-08T11:30:11.638Z,81.1
2016-12-08T11:31:11.900Z,80.63
2016-12-08T11:32:11.862Z,81.15
2016-12-08T11:33:11.820Z,81.44
2016-12-08T11:34:11.779Z,81.44
2016-12-08T11:35:11.436Z,81.44
2016-12-08T11:36:11.703Z,82.1
2016-12-08T11:37:11.658Z,81.82
2016-12-08T11:38:11.616Z,81.63
2016-12-08T11:39:11.579Z,82.01
2016-12-08T11:40:11.537Z,82.01
2016-12-08T11:41:11.195Z,82.48
2016-12-08T11:42:11.462Z,82.29
2016-12-08T11:43:11.114Z,82.1
2016-12-08T11:44:11.376Z,83.14
2016-12-08T11:45:11.337Z,82.76
2016-12-08T11:46:11.298Z,82.86
2016-12-08T11:47:11.255Z,82.95
2016-12-08T11:48:10.911Z,82.67
2016-12-08T11:49:11.172Z,82.76
2016-12-08T11:50:11.135Z,82.29
2016-12-08T11:51:10.791Z,82.2
2016-12-08T11:52:11.052Z,81.44
2016-12-08T11:53:11.018Z,81.63
2016-12-08T11:54:10.670Z,81.06
2016-12-08T11:55:10.929Z,80.58
2016-12-08T11:56:10.892Z,80.96
2016-12-08T11:57:10.547Z,81.06
2016-12-08T11:58:10.508Z,80.77
2016-12-08T11:59:10.770Z,81.34
2016-12-08T12:00:10.431Z,81.44
2016-12-08T12:01:10.385Z,81.92
2016-12-08T12:02:10.649Z,81.92
2016-12-08T12:03:10.308Z,82.57
2016-12-08T12:04:10.565Z,82.86
2016-12-08T12:05:10.527Z,82.76
2016-12-08T12:06:10.487Z,83.43
2016-12-08T12:07:10.447Z,83.1
2016-12-08T12:08:10.404Z,84.05
2016-12-08T12:09:10.061Z,84.52
2016-12-08T12:10:10.324Z,84.42
2016-12-08T12:11:10.281Z,84.52
2016-12-08T12:12:09.945Z,85
2016-12-08T12:13:10.200Z,85
2016-12-08T12:14:10.159Z,85.38
2016-12-08T12:15:10.119Z,85.38
2016-12-08T12:16:09.774Z,85.66
2016-12-08T12:17:10.041Z,86.13
2016-12-08T12:18:09.995Z,85.85
2016-12-08T12:19:09.955Z,85.85
2016-12-08T12:20:09.613Z,85.57
2016-12-08T12:21:09.872Z,85.85
2016-12-08T12:22:09.829Z,86.04
2016-12-08T12:23:09.789Z,85.66
2016-12-08T12:24:09.751Z,85
2016-12-08T12:25:09.705Z,84.66
2016-12-08T12:26:09.667Z,84.38
2016-12-08T12:27:09.627Z,84
2016-12-08T12:28:09.583Z,83.71
2016-12-08T12:29:09.238Z,83.62
2016-12-08T12:30:09.505Z,82.48
2016-12-08T12:31:09.462Z,82.95
2016-12-08T12:32:09.421Z,82.29
2016-12-08T12:33:09.379Z,82.86
2016-12-08T12:34:09.339Z,82.95
2016-12-08T12:35:09.295Z,82.86
2016-12-08T12:36:09.260Z,82.76
2016-12-08T12:37:08.911Z,83.14
2016-12-08T12:38:09.178Z,83.14
2016-12-08T12:39:09.132Z,82.76
2016-12-08T12:40:09.091Z,82.86
2016-12-08T12:41:09.047Z,82.76
2016-12-08T12:42:09.007Z,82.2
2016-12-08T12:43:08.663Z,82.1
2016-12-08T12:44:08.921Z,82.48
2016-12-08T12:45:08.886Z,82.01
2016-12-08T12:46:08.536Z,82.39
2016-12-08T12:47:08.800Z,81.92
2016-12-08T12:48:08.455Z,81.82
2016-12-08T12:49:08.716Z,81.63
2016-12-08T12:50:08.677Z,81.53
2016-12-08T12:51:08.637Z,81.44
2016-12-08T12:52:08.593Z,81.53
2016-12-08T12:53:08.554Z,81.53
2016-12-08T12:54:08.511Z,81.06